createdAt,value
2023-03-05T00:01:30.844Z,5.25
2023-03-05T00:03:59.253Z,5.66
2023-03-05T00:06:28.861Z,5.32
2023-03-05T00:08:58.493Z,5.24
2023-03-05T00:11:29.500Z,5.28
2023-03-05T00:13:59.599Z,5.19
2023-03-05T00:16:28.760Z,5.00
2023-03-05T00:18:57.577Z,5.30
2023-03-05T00:21:27.225Z,5.21
2023-03-05T00:23:56.174Z,5.16
2023-03-05T00:26:26.386Z,5.23
2023-03-05T00:28:56.249Z,5.53
2023-03-05T00:31:30.327Z,5.42
2023-03-05T00:34:00.030Z,5.28
2023-03-05T00:36:28.578Z,5.08
2023-03-05T00:38:57.028Z,5.21
2023-03-05T00:41:25.207Z,5.24
2023-03-05T00:43:53.054Z,5.11
2023-03-05T00:46:20.937Z,4.98
2023-03-05T00:48:50.209Z,5.12
2023-03-05T00:51:18.073Z,4.99
2023-03-05T00:53:45.877Z,4.99
2023-03-05T00:56:14.047Z,5.30
2023-03-05T00:58:42.073Z,5.29
2023-03-05T01:01:10.290Z,5.01
2023-03-05T01:03:38.239Z,5.03
2023-03-05T01:06:10.166Z,5.06
2023-03-05T01:08:38.417Z,5.07
2023-03-05T01:11:07.784Z,4.91
2023-03-05T01:13:35.992Z,5.02
2023-03-05T01:16:04.486Z,5.16
2023-03-05T01:18:32.404Z,4.97
2023-03-05T01:21:00.520Z,5.00
2023-03-05T01:23:29.975Z,5.08
2023-03-05T01:25:59.376Z,4.88
2023-03-05T01:28:29.531Z,4.91
2023-03-05T01:30:57.331Z,5.05
2023-03-05T01:33:25.202Z,4.86
2023-03-05T01:35:53.464Z,4.82
2023-03-05T01:38:21.326Z,4.79
2023-03-05T01:40:50.671Z,5.06
2023-03-05T01:43:26.158Z,5.01
2023-03-05T01:46:23.028Z,4.80
2023-03-05T01:48:54.411Z,4.72
2023-03-05T01:51:25.817Z,4.97
2023-03-05T01:53:57.194Z,4.93
2023-03-05T01:56:28.544Z,4.91
2023-03-05T01:59:03.223Z,4.76
2023-03-05T02:01:39.559Z,4.78
2023-03-05T02:04:10.039Z,4.79
2023-03-05T02:06:39.787Z,4.83
2023-03-05T02:09:07.766Z,4.86
2023-03-05T02:11:37.765Z,4.93
2023-03-05T02:14:09.913Z,5.11
2023-03-05T02:16:39.766Z,4.90
2023-03-05T02:19:10.182Z,4.86
2023-03-05T02:21:41.482Z,4.80
2023-03-05T02:24:13.316Z,4.82
2023-03-05T02:26:43.149Z,4.88
2023-03-05T02:29:14.208Z,4.87
2023-03-05T02:31:43.167Z,4.79
2023-03-05T02:34:11.309Z,4.75
2023-03-05T02:36:40.709Z,4.75
2023-03-05T02:39:10.093Z,4.78
2023-03-05T02:41:38.330Z,4.78
2023-03-05T02:44:06.605Z,4.69
2023-03-05T02:46:35.359Z,4.71
2023-03-05T02:49:03.218Z,4.76
2023-03-05T02:51:31.158Z,4.88
2023-03-05T02:54:01.420Z,4.77
2023-03-05T02:56:30.465Z,5.40
2023-03-05T02:58:58.545Z,5.04
2023-03-05T03:01:28.192Z,4.91
2023-03-05T03:03:56.519Z,4.60
2023-03-05T03:06:24.366Z,4.70
2023-03-05T03:08:52.265Z,4.56
2023-03-05T03:11:21.545Z,4.59
2023-03-05T03:13:49.427Z,4.64
2023-03-05T03:16:17.670Z,4.62
2023-03-05T03:18:47.486Z,4.67
2023-03-05T03:21:21.213Z,4.62
2023-03-05T03:23:49.080Z,4.69
2023-03-05T03:26:17.291Z,4.72
2023-03-05T03:28:46.855Z,4.58
2023-03-05T03:31:15.002Z,4.60
2023-03-05T03:33:42.915Z,4.65
2023-03-05T03:36:11.458Z,4.62
2023-03-05T03:38:39.410Z,4.63
2023-03-05T03:41:08.079Z,4.72
2023-03-05T03:43:36.169Z,4.76
2023-03-05T03:46:07.316Z,4.68
2023-03-05T03:48:36.034Z,5.04
2023-03-05T03:51:06.270Z,5.24
2023-03-05T03:53:34.272Z,4.62
2023-03-05T03:56:02.117Z,4.37
2023-03-05T03:58:30.441Z,4.53
2023-03-05T04:00:58.322Z,4.80
2023-03-05T04:03:27.636Z,4.60
2023-03-05T04:05:55.442Z,4.66
2023-03-05T04:08:23.525Z,4.52
2023-03-05T04:10:51.456Z,4.66
2023-03-05T04:13:19.282Z,4.46
2023-03-05T04:15:47.332Z,4.41
2023-03-05T04:18:15.152Z,4.33
2023-03-05T04:20:44.501Z,4.32
2023-03-05T04:23:12.329Z,4.28
2023-03-05T04:25:40.271Z,4.30
2023-03-05T04:28:08.187Z,4.48
2023-03-05T04:30:35.982Z,4.33
2023-03-05T04:33:03.932Z,4.40
2023-03-05T04:35:32.090Z,4.32
2023-03-05T04:38:01.545Z,4.27
2023-03-05T04:40:29.588Z,4.35
2023-03-05T04:42:58.123Z,4.22
2023-03-05T04:45:26.174Z,4.44
2023-03-05T04:47:54.251Z,4.44
2023-03-05T04:50:22.330Z,4.37
2023-03-05T04:52:50.497Z,4.30
2023-03-05T04:55:20.282Z,4.45
2023-03-05T04:57:48.210Z,4.39
2023-03-05T05:00:17.950Z,4.35
2023-03-05T05:02:48.316Z,4.23
2023-03-05T05:05:18.732Z,4.30
2023-03-05T05:07:47.119Z,4.21
2023-03-05T05:10:15.854Z,4.23
2023-03-05T05:12:45.306Z,4.34
2023-03-05T05:15:14.306Z,4.31
2023-03-05T05:17:42.262Z,4.24
2023-03-05T05:20:12.431Z,4.28
2023-03-05T05:22:40.285Z,4.39
2023-03-05T05:25:09.152Z,4.31
2023-03-05T05:27:37.444Z,4.38
2023-03-05T05:30:08.194Z,4.51
2023-03-05T05:32:36.531Z,4.44
2023-03-05T05:35:04.916Z,4.32
2023-03-05T05:37:32.960Z,4.23
2023-03-05T05:40:00.836Z,4.31
2023-03-05T05:42:29.463Z,4.18
2023-03-05T05:44:57.304Z,4.19
2023-03-05T05:47:26.536Z,4.63
2023-03-05T05:49:54.269Z,4.47
2023-03-05T05:52:22.432Z,4.33
2023-03-05T05:54:50.411Z,4.08
2023-03-05T05:57:18.278Z,4.19
2023-03-05T05:59:46.060Z,4.28
2023-03-05T06:02:13.979Z,4.24
2023-03-05T06:04:43.432Z,4.20
2023-03-05T06:07:11.233Z,4.19
2023-03-05T06:09:39.136Z,4.28
2023-03-05T06:12:08.427Z,4.22
2023-03-05T06:14:36.380Z,4.18
2023-03-05T06:17:04.271Z,4.33
2023-03-05T06:19:32.128Z,4.36
2023-03-05T06:22:01.468Z,4.41
2023-03-05T06:24:29.399Z,4.33
2023-03-05T06:26:57.368Z,4.23
2023-03-05T06:29:25.266Z,4.32
2023-03-05T06:31:53.062Z,4.24
2023-03-05T06:34:20.976Z,4.29
2023-03-05T06:36:48.871Z,4.31
2023-03-05T06:39:18.300Z,4.40
2023-03-05T06:41:46.107Z,4.36
2023-03-05T06:44:13.969Z,4.41
2023-03-05T06:46:41.817Z,4.31
2023-03-05T06:49:09.799Z,4.27
2023-03-05T06:51:40.026Z,4.59
2023-03-05T06:54:10.019Z,4.51
2023-03-05T06:56:41.020Z,4.52
2023-03-05T06:59:09.295Z,4.54
2023-03-05T07:01:37.259Z,4.40
2023-03-05T07:04:05.909Z,4.41
2023-03-05T07:06:35.354Z,4.42
2023-03-05T07:09:04.616Z,4.46
2023-03-05T07:11:32.984Z,4.43
2023-03-05T07:14:03.309Z,4.57
2023-03-05T07:16:33.224Z,4.39
2023-03-05T07:19:03.303Z,4.51
2023-03-05T07:21:34.678Z,4.55
2023-03-05T07:24:05.001Z,4.60
2023-03-05T07:26:34.733Z,4.46
2023-03-05T07:29:05.344Z,4.59
2023-03-05T07:31:33.579Z,4.42
2023-03-05T07:34:03.495Z,4.50
2023-03-05T07:36:35.213Z,4.45
2023-03-05T07:39:05.096Z,4.60
2023-03-05T07:41:33.801Z,4.44
2023-03-05T07:44:02.558Z,4.65
2023-03-05T07:46:34.917Z,4.58
2023-03-05T07:49:03.900Z,4.68
2023-03-05T07:51:32.147Z,4.65
2023-03-05T07:54:01.136Z,4.66
2023-03-05T07:56:32.359Z,4.54
2023-03-05T07:59:01.368Z,4.63
2023-03-05T08:01:29.382Z,4.57
2023-03-05T08:03:58.886Z,4.40
2023-03-05T08:06:26.970Z,4.56
2023-03-05T08:08:54.867Z,4.43
2023-03-05T08:11:23.061Z,4.47
2023-03-05T08:13:51.872Z,4.40
2023-03-05T08:16:22.207Z,4.63
2023-03-05T08:18:50.164Z,4.63
2023-03-05T08:21:22.326Z,4.47
2023-03-05T08:23:50.642Z,4.76
2023-03-05T08:26:20.767Z,4.68
2023-03-05T08:28:51.163Z,4.51
2023-03-05T08:31:21.238Z,4.71
2023-03-05T08:33:49.851Z,4.96
2023-03-05T08:36:19.529Z,4.74
2023-03-05T08:38:48.551Z,4.78
2023-03-05T08:41:17.937Z,4.71
2023-03-05T08:43:46.052Z,4.78
2023-03-05T08:46:16.004Z,4.72
2023-03-05T08:48:44.331Z,4.76
2023-03-05T08:51:14.814Z,4.69
2023-03-05T08:53:45.425Z,5.04
2023-03-05T08:56:14.423Z,4.90
2023-03-05T08:58:42.394Z,5.05
2023-03-05T09:01:11.017Z,4.98
2023-03-05T09:03:39.284Z,4.75
2023-03-05T09:06:09.806Z,4.79
2023-03-05T09:08:38.021Z,4.76
2023-03-05T09:11:09.294Z,4.82
2023-03-05T09:13:37.638Z,4.83
2023-03-05T09:16:08.232Z,4.85
2023-03-05T09:18:37.377Z,4.96
2023-03-05T09:21:07.017Z,5.00
2023-03-05T09:23:35.231Z,4.90
2023-03-05T09:26:03.285Z,5.07
2023-03-05T09:28:32.718Z,5.16
2023-03-05T09:31:03.602Z,5.24
2023-03-05T09:33:31.479Z,5.32
2023-03-05T09:36:00.013Z,5.53
2023-03-05T09:38:28.456Z,5.43
2023-03-05T09:41:02.404Z,5.49
2023-03-05T09:43:45.821Z,5.48
2023-03-05T09:46:31.055Z,5.42
2023-03-05T09:49:05.899Z,5.30
2023-03-05T09:51:40.418Z,5.36
2023-03-05T09:54:14.621Z,5.37
2023-03-05T09:56:45.837Z,5.66
2023-03-05T09:59:27.594Z,5.72
2023-03-05T10:01:58.785Z,5.85
2023-03-05T10:04:30.174Z,5.65
2023-03-05T10:07:07.264Z,5.64
2023-03-05T10:09:47.284Z,5.63
2023-03-05T10:12:25.380Z,5.57
2023-03-05T10:14:55.667Z,5.76
2023-03-05T10:17:42.283Z,5.83
2023-03-05T10:20:34.340Z,5.91
2023-03-05T10:23:26.767Z,6.23
2023-03-05T10:26:04.925Z,5.85
2023-03-05T10:28:41.190Z,5.93
2023-03-05T10:31:24.757Z,5.98
2023-03-05T10:34:03.466Z,6.05
2023-03-05T10:36:46.828Z,6.09
2023-03-05T10:39:42.216Z,6.45
2023-03-05T10:42:20.247Z,6.20
2023-03-05T10:44:52.133Z,6.19
2023-03-05T10:47:27.796Z,6.12
2023-03-05T10:49:57.289Z,5.98
2023-03-05T10:52:31.191Z,6.29
2023-03-05T10:54:59.342Z,6.38
2023-03-05T10:57:32.745Z,6.24
2023-03-05T11:00:17.667Z,6.40
2023-03-05T11:02:59.042Z,6.47
2023-03-05T11:05:49.415Z,6.32
2023-03-05T11:08:30.127Z,6.48
2023-03-05T11:11:07.255Z,6.51
2023-03-05T11:13:37.459Z,6.72
2023-03-05T11:16:07.680Z,6.19
2023-03-05T11:18:37.694Z,6.53
2023-03-05T11:21:11.182Z,6.70
2023-03-05T11:23:39.504Z,6.69
2023-03-05T11:26:20.782Z,6.87
2023-03-05T11:28:59.994Z,7.10
2023-03-05T11:31:29.002Z,7.63
2023-03-05T11:34:02.181Z,7.31
2023-03-05T11:36:32.519Z,7.12
2023-03-05T11:39:10.068Z,6.93
2023-03-05T11:41:41.415Z,7.10
2023-03-05T11:44:14.954Z,7.32
2023-03-05T11:46:46.003Z,7.46
2023-03-05T11:49:21.165Z,7.40
2023-03-05T11:51:57.346Z,7.36
2023-03-05T11:54:31.632Z,7.58
2023-03-05T11:57:01.762Z,7.42
2023-03-05T11:59:35.385Z,7.46
2023-03-05T12:02:03.716Z,7.16
2023-03-05T12:04:35.552Z,7.33
2023-03-05T12:07:05.341Z,7.53
2023-03-05T12:09:42.228Z,7.32
2023-03-05T12:12:19.686Z,7.26
2023-03-05T12:14:52.597Z,7.18
2023-03-05T12:17:27.951Z,7.10
2023-03-05T12:20:05.199Z,7.08
2023-03-05T12:22:37.653Z,6.96
2023-03-05T12:25:26.275Z,6.80
2023-03-05T12:27:54.191Z,6.84
2023-03-05T12:30:56.629Z,7.10
2023-03-05T12:33:34.286Z,6.89
2023-03-05T12:36:40.829Z,6.73
2023-03-05T12:39:52.762Z,6.59
2023-03-05T12:42:46.971Z,6.68
2023-03-05T12:45:28.916Z,6.79
2023-03-05T12:48:34.348Z,6.74
2023-03-05T12:51:02.232Z,6.87
2023-03-05T12:53:31.508Z,6.76
2023-03-05T12:56:06.095Z,6.92
2023-03-05T12:58:42.288Z,7.07
2023-03-05T13:01:24.946Z,7.20
2023-03-05T13:03:57.717Z,6.94
2023-03-05T13:06:28.429Z,6.85
2023-03-05T13:09:04.277Z,6.92
2023-03-05T13:11:35.007Z,6.89
2023-03-05T13:14:04.279Z,6.92
2023-03-05T13:16:39.935Z,7.00
2023-03-05T13:19:17.410Z,7.00
2023-03-05T13:21:45.624Z,7.19
2023-03-05T13:24:19.837Z,7.37
2023-03-05T13:26:47.839Z,7.18
2023-03-05T13:29:17.690Z,7.07
2023-03-05T13:31:48.151Z,7.01
2023-03-05T13:34:20.551Z,7.18
2023-03-05T13:37:00.263Z,6.89
2023-03-05T13:39:32.583Z,7.00
2023-03-05T13:42:04.115Z,7.27
2023-03-05T13:44:33.379Z,7.18
2023-03-05T13:47:18.126Z,7.13
2023-03-05T13:49:47.311Z,7.07
2023-03-05T13:52:24.907Z,7.20
2023-03-05T13:54:54.347Z,7.10
2023-03-05T13:57:36.103Z,7.00
2023-03-05T14:00:05.662Z,7.14
2023-03-05T14:02:34.130Z,7.00
2023-03-05T14:05:02.517Z,7.08
2023-03-05T14:07:34.632Z,7.29
2023-03-05T14:10:05.551Z,7.52
2023-03-05T14:12:37.720Z,7.26
2023-03-05T14:15:22.724Z,7.11
2023-03-05T14:17:50.758Z,7.33
2023-03-05T14:20:23.698Z,7.11
2023-03-05T14:22:55.430Z,7.10
2023-03-05T14:25:38.588Z,7.16
2023-03-05T14:28:09.222Z,7.26
2023-03-05T14:30:37.818Z,7.06
2023-03-05T14:33:06.143Z,7.10
2023-03-05T14:35:34.342Z,7.10
2023-03-05T14:38:02.486Z,7.44
2023-03-05T14:40:34.382Z,7.25
2023-03-05T14:43:04.115Z,7.17
2023-03-05T14:45:33.639Z,6.86
2023-03-05T14:48:03.493Z,7.06
2023-03-05T14:50:34.910Z,6.95
2023-03-05T14:53:05.105Z,6.76
2023-03-05T14:55:38.446Z,6.93
2023-03-05T14:58:13.314Z,6.62
2023-03-05T15:00:41.473Z,6.81
2023-03-05T15:03:14.887Z,6.57
2023-03-05T15:05:44.349Z,6.96
2023-03-05T15:08:16.409Z,7.10
2023-03-05T15:10:45.842Z,7.00
2023-03-05T15:13:15.561Z,7.06
2023-03-05T15:15:45.209Z,7.17
2023-03-05T15:18:14.134Z,6.91
2023-03-05T15:20:42.079Z,6.97
2023-03-05T15:23:10.578Z,6.99
2023-03-05T15:25:38.601Z,7.00
2023-03-05T15:28:08.415Z,7.11
2023-03-05T15:30:38.137Z,6.99
2023-03-05T15:33:08.920Z,7.08
2023-03-05T15:35:38.068Z,7.08
2023-03-05T15:38:06.163Z,7.11
2023-03-05T15:40:34.207Z,7.17
2023-03-05T15:43:02.373Z,6.85
2023-03-05T15:45:31.725Z,6.88
2023-03-05T15:47:59.675Z,6.89
2023-03-05T15:50:27.531Z,6.71
2023-03-05T15:52:55.393Z,6.75
2023-03-05T15:55:23.676Z,6.77
2023-03-05T15:57:54.295Z,6.60
2023-03-05T16:00:26.061Z,6.70
2023-03-05T16:02:55.524Z,6.76
2023-03-05T16:05:23.891Z,6.83
2023-03-05T16:07:52.765Z,6.89
2023-03-05T16:10:23.936Z,6.83
2023-03-05T16:12:56.389Z,6.81
2023-03-05T16:15:25.289Z,6.86
2023-03-05T16:17:57.641Z,6.77
2023-03-05T16:20:28.598Z,6.62
2023-03-05T16:22:56.889Z,6.55
2023-03-05T16:25:25.156Z,6.54
2023-03-05T16:27:52.935Z,6.50
2023-03-05T16:30:21.558Z,6.48
2023-03-05T16:32:49.881Z,6.70
2023-03-05T16:35:21.477Z,6.58
2023-03-05T16:37:49.286Z,6.56
2023-03-05T16:40:17.262Z,6.38
2023-03-05T16:42:45.219Z,6.19
2023-03-05T16:45:14.072Z,6.32
2023-03-05T16:47:42.282Z,6.36
2023-03-05T16:50:11.560Z,6.24
2023-03-05T16:52:41.035Z,6.25
2023-03-05T16:55:09.622Z,6.28
2023-03-05T16:57:39.561Z,6.38
2023-03-05T17:00:10.806Z,6.29
2023-03-05T17:02:38.845Z,6.15
2023-03-05T17:05:08.604Z,6.23
2023-03-05T17:07:36.474Z,6.35
2023-03-05T17:10:06.736Z,6.23
2023-03-05T17:12:34.552Z,6.22
2023-03-05T17:15:02.472Z,6.14
2023-03-05T17:17:31.880Z,6.12
2023-03-05T17:20:01.434Z,6.24
2023-03-05T17:22:32.489Z,6.35
2023-03-05T17:25:00.455Z,6.18
2023-03-05T17:27:29.856Z,6.14
2023-03-05T17:29:57.786Z,6.09
2023-03-05T17:32:25.859Z,6.23
2023-03-05T17:34:54.682Z,6.20
2023-03-05T17:37:23.138Z,6.15
2023-03-05T17:39:50.986Z,6.11
2023-03-05T17:42:20.692Z,5.96
2023-03-05T17:44:50.661Z,6.04
2023-03-05T17:47:18.664Z,6.00
2023-03-05T17:49:46.741Z,6.11
2023-03-05T17:52:14.644Z,6.19
2023-03-05T17:54:42.530Z,6.07
2023-03-05T17:57:10.618Z,6.09
2023-03-05T17:59:38.746Z,6.21
2023-03-05T18:02:08.298Z,5.96
2023-03-05T18:04:36.270Z,6.15
2023-03-05T18:07:04.261Z,6.04
2023-03-05T18:09:32.183Z,6.07
2023-03-05T18:12:00.228Z,5.93
2023-03-05T18:14:28.328Z,5.92
2023-03-05T18:16:58.055Z,5.84
2023-03-05T18:19:27.684Z,5.81
2023-03-05T18:21:55.452Z,5.97
2023-03-05T18:24:23.320Z,5.93
2023-03-05T18:26:51.054Z,6.08
2023-03-05T18:29:19.002Z,6.03
2023-03-05T18:31:46.877Z,6.11
2023-03-05T18:34:14.798Z,6.02
2023-03-05T18:36:44.100Z,5.94
2023-03-05T18:39:13.395Z,5.71
2023-03-05T18:41:42.636Z,5.94
2023-03-05T18:44:10.505Z,6.01
2023-03-05T18:46:38.376Z,5.91
2023-03-05T18:49:06.662Z,6.12
2023-03-05T18:51:35.564Z,6.07
2023-03-05T18:54:05.073Z,5.73
2023-03-05T18:56:32.914Z,5.90
2023-03-05T18:59:00.928Z,5.72
2023-03-05T19:01:29.025Z,5.68
2023-03-05T19:03:57.236Z,5.69
2023-03-05T19:06:25.131Z,5.75
2023-03-05T19:08:57.260Z,5.70
2023-03-05T19:11:26.612Z,5.69
2023-03-05T19:13:54.412Z,5.71
2023-03-05T19:16:26.559Z,5.73
2023-03-05T19:19:03.919Z,5.72
2023-03-05T19:21:32.208Z,5.71
2023-03-05T19:24:00.274Z,5.70
2023-03-05T19:26:29.626Z,5.64
2023-03-05T19:28:57.543Z,5.62
2023-03-05T19:31:25.643Z,5.60
2023-03-05T19:33:54.815Z,5.54
2023-03-05T19:36:23.174Z,5.69
2023-03-05T19:38:50.991Z,5.49
2023-03-05T19:41:21.089Z,5.48
2023-03-05T19:43:50.686Z,5.49
2023-03-05T19:46:18.807Z,5.33
2023-03-05T19:48:46.913Z,5.31
2023-03-05T19:51:19.802Z,5.35
2023-03-05T19:53:49.071Z,5.51
2023-03-05T19:56:17.507Z,5.49
2023-03-05T19:58:46.412Z,5.49
2023-03-05T20:01:21.541Z,5.39
2023-03-05T20:03:50.944Z,5.40
2023-03-05T20:06:19.076Z,5.15
2023-03-05T20:08:47.058Z,5.48
2023-03-05T20:11:16.845Z,5.30
2023-03-05T20:13:45.886Z,5.35
2023-03-05T20:16:17.068Z,5.22
2023-03-05T20:18:47.756Z,5.34
2023-03-05T20:21:21.407Z,5.27
2023-03-05T20:23:49.436Z,5.38
2023-03-05T20:26:17.650Z,5.30
2023-03-05T20:28:45.700Z,5.17
2023-03-05T20:31:13.612Z,5.13
2023-03-05T20:33:41.431Z,5.14
2023-03-05T20:36:11.264Z,5.20
2023-03-05T20:38:39.106Z,5.21
2023-03-05T20:41:08.505Z,5.29
2023-03-05T20:43:38.428Z,5.39
2023-03-05T20:46:06.605Z,5.28
2023-03-05T20:48:35.361Z,5.21
2023-03-05T20:51:14.563Z,5.06
2023-03-05T20:53:42.823Z,4.97
2023-03-05T20:56:10.833Z,5.01
2023-03-05T20:58:38.735Z,5.12
2023-03-05T21:01:07.062Z,5.08
2023-03-05T21:03:37.136Z,5.26
2023-03-05T21:06:06.031Z,5.16
2023-03-05T21:08:35.478Z,5.13
2023-03-05T21:11:09.505Z,5.26
2023-03-05T21:14:03.776Z,5.05
2023-03-05T21:16:32.531Z,5.21
2023-03-05T21:19:00.598Z,5.21
2023-03-05T21:21:28.480Z,5.11
2023-03-05T21:23:57.758Z,5.14
2023-03-05T21:26:25.784Z,5.14
2023-03-05T21:28:53.680Z,4.94
2023-03-05T21:31:22.804Z,5.02
2023-03-05T21:33:50.771Z,5.04
2023-03-05T21:36:19.160Z,4.93
2023-03-05T21:38:47.328Z,5.00
2023-03-05T21:41:17.939Z,4.90
2023-03-05T21:43:45.806Z,5.12
2023-03-05T21:46:15.079Z,4.84
2023-03-05T21:48:42.985Z,4.78
2023-03-05T21:51:13.578Z,4.83
2023-03-05T21:53:41.334Z,4.78
2023-03-05T21:56:22.025Z,4.92
2023-03-05T21:58:51.994Z,4.71
2023-03-05T22:01:21.196Z,4.77
2023-03-05T22:03:49.862Z,4.74
2023-03-05T22:06:19.802Z,4.76
2023-03-05T22:08:48.298Z,4.83
2023-03-05T22:11:19.109Z,4.68
2023-03-05T22:13:47.162Z,4.79
2023-03-05T22:16:24.325Z,4.76
2023-03-05T22:18:53.220Z,4.61
2023-03-05T22:21:23.595Z,4.62
2023-03-05T22:23:53.338Z,4.70
2023-03-05T22:26:21.537Z,4.65
2023-03-05T22:28:49.594Z,4.76
2023-03-05T22:31:22.610Z,4.77
2023-03-05T22:33:51.230Z,4.78
2023-03-05T22:36:19.388Z,4.71
2023-03-05T22:38:47.759Z,4.77
2023-03-05T22:41:19.726Z,4.57
2023-03-05T22:43:48.813Z,4.48
2023-03-05T22:46:19.412Z,4.64
2023-03-05T22:48:49.441Z,4.71
2023-03-05T22:51:17.792Z,4.44
2023-03-05T22:53:46.520Z,4.48
2023-03-05T22:56:16.670Z,4.62
2023-03-05T22:58:44.753Z,4.57
2023-03-05T23:01:13.117Z,4.64
2023-03-05T23:03:41.411Z,4.69
2023-03-05T23:06:11.615Z,4.62
2023-03-05T23:08:39.556Z,4.53
2023-03-05T23:11:12.244Z,4.69
2023-03-05T23:13:40.800Z,4.45
2023-03-05T23:16:09.466Z,4.53
2023-03-05T23:18:38.266Z,4.74
2023-03-05T23:21:06.342Z,4.77
2023-03-05T23:23:35.906Z,4.72
2023-03-05T23:26:03.848Z,4.67
2023-03-05T23:28:31.716Z,4.50
2023-03-05T23:30:59.845Z,4.54
2023-03-05T23:33:27.807Z,4.60
2023-03-05T23:35:57.665Z,4.80
2023-03-05T23:38:27.547Z,4.61
2023-03-05T23:41:01.094Z,4.71
2023-03-05T23:43:29.516Z,4.61
2023-03-05T23:45:58.038Z,4.47
2023-03-05T23:48:27.441Z,4.51
2023-03-05T23:50:55.719Z,4.55
2023-03-05T23:53:26.198Z,4.37
2023-03-05T23:55:55.075Z,4.45
2023-03-05T23:58:24.360Z,4.44
